sensor_id;sensor_type;location;lat;lon;timestamp;P1;durP1;ratioP1;P2;durP2;ratioP2
52057;SDS011;38063;53.210;6.504;2023-11-19T00:02:19;90.68;;;23.83;;
52057;SDS011;38063;53.210;6.504;2023-11-19T00:04:45;87.38;;;22.48;;
52057;SDS011;38063;53.210;6.504;2023-11-19T00:07:11;83.97;;;22.20;;
52057;SDS011;38063;53.210;6.504;2023-11-19T00:09:39;92.65;;;23.67;;
52057;SDS011;38063;53.210;6.504;2023-11-19T00:12:05;82.60;;;22.30;;
52057;SDS011;38063;53.210;6.504;2023-11-19T00:14:31;77.85;;;20.95;;
52057;SDS011;38063;53.210;6.504;2023-11-19T00:16:57;76.72;;;21.23;;
52057;SDS011;38063;53.210;6.504;2023-11-19T00:19:23;80.05;;;20.67;;
52057;SDS011;38063;53.210;6.504;2023-11-19T00:21:48;75.80;;;18.77;;
52057;SDS011;38063;53.210;6.504;2023-11-19T00:24:14;62.58;;;17.88;;
52057;SDS011;38063;53.210;6.504;2023-11-19T00:26:41;77.60;;;18.63;;
52057;SDS011;38063;53.210;6.504;2023-11-19T00:29:07;62.20;;;17.95;;
52057;SDS011;38063;53.210;6.504;2023-11-19T00:31:33;66.20;;;17.10;;
52057;SDS011;38063;53.210;6.504;2023-11-19T00:33:59;63.15;;;16.65;;
52057;SDS011;38063;53.210;6.504;2023-11-19T00:36:26;47.63;;;14.07;;
52057;SDS011;38063;53.210;6.504;2023-11-19T00:38:53;61.25;;;13.80;;
52057;SDS011;38063;53.210;6.504;2023-11-19T00:41:19;50.55;;;11.88;;
52057;SDS011;38063;53.210;6.504;2023-11-19T00:43:44;51.20;;;12.52;;
52057;SDS011;38063;53.210;6.504;2023-11-19T00:46:10;50.40;;;11.93;;
52057;SDS011;38063;53.210;6.504;2023-11-19T00:48:36;60.30;;;10.13;;
52057;SDS011;38063;53.210;6.504;2023-11-19T00:51:02;34.88;;;9.63;;
52057;SDS011;38063;53.210;6.504;2023-11-19T00:53:29;58.40;;;10.70;;
52057;SDS011;38063;53.210;6.504;2023-11-19T00:55:55;57.72;;;9.18;;
52057;SDS011;38063;53.210;6.504;2023-11-19T00:58:21;44.42;;;9.68;;
52057;SDS011;38063;53.210;6.504;2023-11-19T01:00:47;38.00;;;9.30;;
52057;SDS011;38063;53.210;6.504;2023-11-19T01:03:12;48.70;;;7.70;;
52057;SDS011;38063;53.210;6.504;2023-11-19T01:05:39;46.65;;;7.95;;
52057;SDS011;38063;53.210;6.504;2023-11-19T01:08:06;41.53;;;7.95;;
52057;SDS011;38063;53.210;6.504;2023-11-19T01:10:31;44.30;;;8.18;;
52057;SDS011;38063;53.210;6.504;2023-11-19T01:12:57;41.55;;;7.10;;
52057;SDS011;38063;53.210;6.504;2023-11-19T01:15:23;45.05;;;7.70;;
52057;SDS011;38063;53.210;6.504;2023-11-19T01:17:49;40.72;;;7.25;;
52057;SDS011;38063;53.210;6.504;2023-11-19T01:20:15;52.78;;;7.47;;
52057;SDS011;38063;53.210;6.504;2023-11-19T01:22:40;41.75;;;6.95;;
52057;SDS011;38063;53.210;6.504;2023-11-19T01:25:06;35.42;;;6.35;;
52057;SDS011;38063;53.210;6.504;2023-11-19T01:27:32;42.42;;;6.00;;
52057;SDS011;38063;53.210;6.504;2023-11-19T01:30:01;45.28;;;6.50;;
52057;SDS011;38063;53.210;6.504;2023-11-19T01:32:34;41.53;;;5.95;;
52057;SDS011;38063;53.210;6.504;2023-11-19T01:35:01;39.42;;;7.32;;
52057;SDS011;38063;53.210;6.504;2023-11-19T01:37:28;39.58;;;6.30;;
52057;SDS011;38063;53.210;6.504;2023-11-19T01:39:54;45.80;;;6.63;;
52057;SDS011;38063;53.210;6.504;2023-11-19T01:42:19;35.53;;;5.97;;
52057;SDS011;38063;53.210;6.504;2023-11-19T01:44:55;36.33;;;5.68;;
52057;SDS011;38063;53.210;6.504;2023-11-19T01:47:23;38.85;;;5.75;;
52057;SDS011;38063;53.210;6.504;2023-11-19T01:49:49;32.17;;;6.03;;
52057;SDS011;38063;53.210;6.504;2023-11-19T01:52:16;41.90;;;6.38;;
52057;SDS011;38063;53.210;6.504;2023-11-19T01:54:42;36.47;;;5.63;;
52057;SDS011;38063;53.210;6.504;2023-11-19T01:57:07;37.15;;;6.07;;
52057;SDS011;38063;53.210;6.504;2023-11-19T01:59:34;32.25;;;5.32;;
52057;SDS011;38063;53.210;6.504;2023-11-19T02:02:00;42.53;;;5.97;;
52057;SDS011;38063;53.210;6.504;2023-11-19T02:04:25;37.88;;;5.55;;
52057;SDS011;38063;53.210;6.504;2023-11-19T02:06:52;36.25;;;5.68;;
52057;SDS011;38063;53.210;6.504;2023-11-19T02:09:21;36.70;;;6.00;;
52057;SDS011;38063;53.210;6.504;2023-11-19T02:11:47;39.03;;;5.75;;
52057;SDS011;38063;53.210;6.504;2023-11-19T02:14:16;39.22;;;5.75;;
52057;SDS011;38063;53.210;6.504;2023-11-19T02:16:42;38.50;;;5.57;;
52057;SDS011;38063;53.210;6.504;2023-11-19T02:19:08;53.13;;;5.90;;
52057;SDS011;38063;53.210;6.504;2023-11-19T02:21:36;32.40;;;6.13;;
52057;SDS011;38063;53.210;6.504;2023-11-19T02:24:03;37.10;;;5.57;;
52057;SDS011;38063;53.210;6.504;2023-11-19T02:29:04;41.95;;;5.53;;
52057;SDS011;38063;53.210;6.504;2023-11-19T02:31:31;40.38;;;5.88;;
52057;SDS011;38063;53.210;6.504;2023-11-19T02:33:57;35.45;;;6.07;;
52057;SDS011;38063;53.210;6.504;2023-11-19T02:36:25;25.95;;;4.82;;
52057;SDS011;38063;53.210;6.504;2023-11-19T02:38:50;34.83;;;6.03;;
52057;SDS011;38063;53.210;6.504;2023-11-19T02:41:16;37.05;;;5.28;;
52057;SDS011;38063;53.210;6.504;2023-11-19T02:43:42;33.78;;;5.60;;
52057;SDS011;38063;53.210;6.504;2023-11-19T02:46:07;36.35;;;5.78;;
52057;SDS011;38063;53.210;6.504;2023-11-19T02:48:34;37.83;;;6.15;;
52057;SDS011;38063;53.210;6.504;2023-11-19T02:51:00;35.13;;;5.65;;
52057;SDS011;38063;53.210;6.504;2023-11-19T02:53:28;30.67;;;4.80;;
52057;SDS011;38063;53.210;6.504;2023-11-19T02:55:54;32.45;;;5.13;;
52057;SDS011;38063;53.210;6.504;2023-11-19T02:58:26;38.05;;;5.82;;
52057;SDS011;38063;53.210;6.504;2023-11-19T03:00:53;32.17;;;6.43;;
52057;SDS011;38063;53.210;6.504;2023-11-19T03:03:25;42.63;;;5.43;;
52057;SDS011;38063;53.210;6.504;2023-11-19T03:06:03;30.33;;;7.40;;
52057;SDS011;38063;53.210;6.504;2023-11-19T03:08:30;36.28;;;5.80;;
52057;SDS011;38063;53.210;6.504;2023-11-19T03:10:55;26.08;;;4.30;;
52057;SDS011;38063;53.210;6.504;2023-11-19T03:13:21;31.63;;;4.20;;
52057;SDS011;38063;53.210;6.504;2023-11-19T03:15:47;35.38;;;5.63;;
52057;SDS011;38063;53.210;6.504;2023-11-19T03:18:12;31.58;;;4.65;;
52057;SDS011;38063;53.210;6.504;2023-11-19T03:20:38;31.40;;;4.93;;
52057;SDS011;38063;53.210;6.504;2023-11-19T03:23:05;40.25;;;4.82;;
52057;SDS011;38063;53.210;6.504;2023-11-19T03:25:31;38.75;;;5.90;;
52057;SDS011;38063;53.210;6.504;2023-11-19T03:28:01;31.48;;;4.75;;
52057;SDS011;38063;53.210;6.504;2023-11-19T03:30:28;37.35;;;5.38;;
52057;SDS011;38063;53.210;6.504;2023-11-19T03:32:54;35.75;;;5.63;;
52057;SDS011;38063;53.210;6.504;2023-11-19T03:35:20;32.42;;;5.35;;
52057;SDS011;38063;53.210;6.504;2023-11-19T03:37:46;38.95;;;5.13;;
52057;SDS011;38063;53.210;6.504;2023-11-19T03:40:13;35.83;;;5.20;;
52057;SDS011;38063;53.210;6.504;2023-11-19T03:42:39;33.10;;;4.68;;
52057;SDS011;38063;53.210;6.504;2023-11-19T03:45:06;32.70;;;4.75;;
52057;SDS011;38063;53.210;6.504;2023-11-19T03:47:34;34.22;;;5.18;;
52057;SDS011;38063;53.210;6.504;2023-11-19T03:50:00;26.63;;;4.40;;
52057;SDS011;38063;53.210;6.504;2023-11-19T03:52:26;27.00;;;4.85;;
52057;SDS011;38063;53.210;6.504;2023-11-19T03:54:54;32.65;;;4.63;;
52057;SDS011;38063;53.210;6.504;2023-11-19T03:57:22;39.20;;;6.03;;
52057;SDS011;38063;53.210;6.504;2023-11-19T03:59:47;38.00;;;5.18;;
52057;SDS011;38063;53.210;6.504;2023-11-19T04:02:13;35.10;;;4.93;;
52057;SDS011;38063;53.210;6.504;2023-11-19T04:04:39;30.83;;;4.60;;
52057;SDS011;38063;53.210;6.504;2023-11-19T04:07:05;35.88;;;5.20;;
52057;SDS011;38063;53.210;6.504;2023-11-19T04:09:30;33.78;;;5.25;;
52057;SDS011;38063;53.210;6.504;2023-11-19T04:11:58;38.83;;;5.65;;
52057;SDS011;38063;53.210;6.504;2023-11-19T04:14:25;41.72;;;5.68;;
52057;SDS011;38063;53.210;6.504;2023-11-19T04:16:51;33.53;;;5.30;;
52057;SDS011;38063;53.210;6.504;2023-11-19T04:19:20;33.55;;;4.95;;
52057;SDS011;38063;53.210;6.504;2023-11-19T04:21:47;43.92;;;6.15;;
52057;SDS011;38063;53.210;6.504;2023-11-19T04:24:13;33.75;;;5.78;;
52057;SDS011;38063;53.210;6.504;2023-11-19T04:26:43;43.85;;;7.38;;
52057;SDS011;38063;53.210;6.504;2023-11-19T04:29:11;41.55;;;6.03;;
52057;SDS011;38063;53.210;6.504;2023-11-19T04:31:38;42.00;;;5.93;;
52057;SDS011;38063;53.210;6.504;2023-11-19T04:34:04;32.85;;;5.65;;
52057;SDS011;38063;53.210;6.504;2023-11-19T04:36:31;36.58;;;4.85;;
52057;SDS011;38063;53.210;6.504;2023-11-19T04:38:58;28.52;;;4.88;;
52057;SDS011;38063;53.210;6.504;2023-11-19T04:41:25;31.00;;;6.43;;
52057;SDS011;38063;53.210;6.504;2023-11-19T04:43:52;33.08;;;5.55;;
52057;SDS011;38063;53.210;6.504;2023-11-19T04:46:18;36.63;;;5.72;;
52057;SDS011;38063;53.210;6.504;2023-11-19T04:48:44;35.17;;;6.43;;
52057;SDS011;38063;53.210;6.504;2023-11-19T04:51:10;34.58;;;5.43;;
52057;SDS011;38063;53.210;6.504;2023-11-19T04:53:35;31.10;;;5.70;;
52057;SDS011;38063;53.210;6.504;2023-11-19T04:56:07;40.75;;;5.53;;
52057;SDS011;38063;53.210;6.504;2023-11-19T04:58:36;43.25;;;6.85;;
52057;SDS011;38063;53.210;6.504;2023-11-19T05:01:03;37.63;;;6.00;;
52057;SDS011;38063;53.210;6.504;2023-11-19T05:03:29;47.35;;;5.93;;
52057;SDS011;38063;53.210;6.504;2023-11-19T05:05:56;38.10;;;4.97;;
52057;SDS011;38063;53.210;6.504;2023-11-19T05:08:22;40.60;;;6.13;;
52057;SDS011;38063;53.210;6.504;2023-11-19T05:10:47;46.92;;;7.00;;
52057;SDS011;38063;53.210;6.504;2023-11-19T05:13:13;48.03;;;7.03;;
52057;SDS011;38063;53.210;6.504;2023-11-19T05:15:40;40.95;;;5.55;;
52057;SDS011;38063;53.210;6.504;2023-11-19T05:18:06;41.40;;;5.72;;
52057;SDS011;38063;53.210;6.504;2023-11-19T05:20:32;43.80;;;6.55;;
52057;SDS011;38063;53.210;6.504;2023-11-19T05:22:58;39.83;;;5.72;;
52057;SDS011;38063;53.210;6.504;2023-11-19T05:25:25;32.25;;;5.60;;
52057;SDS011;38063;53.210;6.504;2023-11-19T05:27:51;46.92;;;7.90;;
52057;SDS011;38063;53.210;6.504;2023-11-19T05:30:17;38.60;;;6.25;;
52057;SDS011;38063;53.210;6.504;2023-11-19T05:32:43;36.10;;;5.38;;
52057;SDS011;38063;53.210;6.504;2023-11-19T05:35:09;36.17;;;5.75;;
52057;SDS011;38063;53.210;6.504;2023-11-19T05:37:36;40.05;;;6.40;;
52057;SDS011;38063;53.210;6.504;2023-11-19T05:40:02;51.58;;;5.78;;
52057;SDS011;38063;53.210;6.504;2023-11-19T05:42:29;35.78;;;5.88;;
52057;SDS011;38063;53.210;6.504;2023-11-19T05:44:54;32.97;;;6.28;;
52057;SDS011;38063;53.210;6.504;2023-11-19T05:47:20;40.25;;;5.80;;
52057;SDS011;38063;53.210;6.504;2023-11-19T05:49:46;37.85;;;6.32;;
52057;SDS011;38063;53.210;6.504;2023-11-19T05:52:11;42.95;;;6.13;;
52057;SDS011;38063;53.210;6.504;2023-11-19T05:54:37;36.28;;;5.55;;
52057;SDS011;38063;53.210;6.504;2023-11-19T05:57:06;46.25;;;5.65;;
52057;SDS011;38063;53.210;6.504;2023-11-19T05:59:35;43.20;;;5.88;;
52057;SDS011;38063;53.210;6.504;2023-11-19T06:02:01;41.60;;;6.25;;
52057;SDS011;38063;53.210;6.504;2023-11-19T06:04:27;40.38;;;6.30;;
52057;SDS011;38063;53.210;6.504;2023-11-19T06:06:53;35.65;;;5.85;;
52057;SDS011;38063;53.210;6.504;2023-11-19T06:09:22;37.70;;;5.90;;
52057;SDS011;38063;53.210;6.504;2023-11-19T06:11:51;36.50;;;7.03;;
52057;SDS011;38063;53.210;6.504;2023-11-19T06:14:17;35.13;;;5.72;;
52057;SDS011;38063;53.210;6.504;2023-11-19T06:16:43;42.00;;;6.82;;
52057;SDS011;38063;53.210;6.504;2023-11-19T06:19:09;40.20;;;5.90;;
52057;SDS011;38063;53.210;6.504;2023-11-19T06:21:36;44.78;;;6.25;;
52057;SDS011;38063;53.210;6.504;2023-11-19T06:24:02;42.65;;;7.80;;
52057;SDS011;38063;53.210;6.504;2023-11-19T06:26:28;31.63;;;5.50;;
52057;SDS011;38063;53.210;6.504;2023-11-19T06:28:54;35.83;;;5.57;;
52057;SDS011;38063;53.210;6.504;2023-11-19T06:31:19;30.65;;;4.72;;
52057;SDS011;38063;53.210;6.504;2023-11-19T06:33:46;36.63;;;6.05;;
52057;SDS011;38063;53.210;6.504;2023-11-19T06:36:13;40.72;;;5.43;;
52057;SDS011;38063;53.210;6.504;2023-11-19T06:38:41;40.88;;;5.40;;
52057;SDS011;38063;53.210;6.504;2023-11-19T06:41:07;40.13;;;6.60;;
52057;SDS011;38063;53.210;6.504;2023-11-19T06:43:36;42.00;;;5.68;;
52057;SDS011;38063;53.210;6.504;2023-11-19T06:46:02;36.47;;;6.20;;
52057;SDS011;38063;53.210;6.504;2023-11-19T06:48:31;45.55;;;5.72;;
52057;SDS011;38063;53.210;6.504;2023-11-19T06:50:57;40.60;;;5.70;;
52057;SDS011;38063;53.210;6.504;2023-11-19T06:53:23;35.88;;;5.60;;
52057;SDS011;38063;53.210;6.504;2023-11-19T06:55:48;30.48;;;5.47;;
52057;SDS011;38063;53.210;6.504;2023-11-19T06:58:14;39.35;;;6.30;;
52057;SDS011;38063;53.210;6.504;2023-11-19T07:00:40;36.40;;;6.95;;
52057;SDS011;38063;53.210;6.504;2023-11-19T07:03:06;38.20;;;5.07;;
52057;SDS011;38063;53.210;6.504;2023-11-19T07:05:35;29.73;;;5.10;;
52057;SDS011;38063;53.210;6.504;2023-11-19T07:08:03;39.47;;;5.63;;
52057;SDS011;38063;53.210;6.504;2023-11-19T07:10:30;23.88;;;4.53;;
52057;SDS011;38063;53.210;6.504;2023-11-19T07:12:56;41.80;;;6.60;;
52057;SDS011;38063;53.210;6.504;2023-11-19T07:15:22;49.45;;;6.07;;
52057;SDS011;38063;53.210;6.504;2023-11-19T07:17:48;44.53;;;6.50;;
52057;SDS011;38063;53.210;6.504;2023-11-19T07:20:13;36.97;;;5.47;;
52057;SDS011;38063;53.210;6.504;2023-11-19T07:22:41;39.25;;;5.43;;
52057;SDS011;38063;53.210;6.504;2023-11-19T07:25:08;40.17;;;5.20;;
52057;SDS011;38063;53.210;6.504;2023-11-19T07:27:34;34.00;;;5.30;;
52057;SDS011;38063;53.210;6.504;2023-11-19T07:29:59;35.00;;;5.25;;
52057;SDS011;38063;53.210;6.504;2023-11-19T07:32:25;44.22;;;5.15;;
52057;SDS011;38063;53.210;6.504;2023-11-19T07:34:50;43.95;;;5.80;;
52057;SDS011;38063;53.210;6.504;2023-11-19T07:37:16;41.75;;;6.88;;
52057;SDS011;38063;53.210;6.504;2023-11-19T07:39:42;44.50;;;6.35;;
52057;SDS011;38063;53.210;6.504;2023-11-19T07:42:07;35.72;;;5.88;;
52057;SDS011;38063;53.210;6.504;2023-11-19T07:44:34;47.03;;;6.88;;
52057;SDS011;38063;53.210;6.504;2023-11-19T07:47:00;43.90;;;6.20;;
52057;SDS011;38063;53.210;6.504;2023-11-19T07:49:25;38.40;;;6.32;;
52057;SDS011;38063;53.210;6.504;2023-11-19T07:51:51;34.22;;;5.32;;
52057;SDS011;38063;53.210;6.504;2023-11-19T07:54:17;36.67;;;6.50;;
52057;SDS011;38063;53.210;6.504;2023-11-19T07:56:43;45.55;;;7.03;;
52057;SDS011;38063;53.210;6.504;2023-11-19T07:59:09;38.67;;;5.30;;
52057;SDS011;38063;53.210;6.504;2023-11-19T08:01:34;38.25;;;9.23;;
52057;SDS011;38063;53.210;6.504;2023-11-19T08:04:00;32.72;;;5.43;;
52057;SDS011;38063;53.210;6.504;2023-11-19T08:06:29;36.45;;;6.28;;
52057;SDS011;38063;53.210;6.504;2023-11-19T08:08:55;40.65;;;5.20;;
52057;SDS011;38063;53.210;6.504;2023-11-19T08:11:20;38.13;;;6.57;;
52057;SDS011;38063;53.210;6.504;2023-11-19T08:13:46;40.08;;;6.47;;
52057;SDS011;38063;53.210;6.504;2023-11-19T08:16:12;37.75;;;6.13;;
52057;SDS011;38063;53.210;6.504;2023-11-19T08:18:38;35.90;;;5.53;;
52057;SDS011;38063;53.210;6.504;2023-11-19T08:21:06;31.50;;;6.18;;
52057;SDS011;38063;53.210;6.504;2023-11-19T08:23:31;39.67;;;6.47;;
52057;SDS011;38063;53.210;6.504;2023-11-19T08:25:57;44.03;;;6.03;;
52057;SDS011;38063;53.210;6.504;2023-11-19T08:28:23;33.33;;;5.72;;
52057;SDS011;38063;53.210;6.504;2023-11-19T08:30:48;30.83;;;5.13;;
52057;SDS011;38063;53.210;6.504;2023-11-19T08:33:14;41.83;;;6.03;;
52057;SDS011;38063;53.210;6.504;2023-11-19T08:35:40;36.67;;;6.32;;
52057;SDS011;38063;53.210;6.504;2023-11-19T08:38:06;38.03;;;4.95;;
52057;SDS011;38063;53.210;6.504;2023-11-19T08:40:31;32.90;;;5.70;;
52057;SDS011;38063;53.210;6.504;2023-11-19T08:42:57;42.20;;;5.40;;
52057;SDS011;38063;53.210;6.504;2023-11-19T08:45:23;35.88;;;4.68;;
52057;SDS011;38063;53.210;6.504;2023-11-19T08:47:48;37.60;;;5.50;;
52057;SDS011;38063;53.210;6.504;2023-11-19T08:50:14;30.17;;;5.43;;
52057;SDS011;38063;53.210;6.504;2023-11-19T08:52:40;34.35;;;4.82;;
52057;SDS011;38063;53.210;6.504;2023-11-19T08:55:05;37.88;;;6.70;;
52057;SDS011;38063;53.210;6.504;2023-11-19T08:57:31;33.78;;;6.03;;
52057;SDS011;38063;53.210;6.504;2023-11-19T09:00:00;36.08;;;5.90;;
52057;SDS011;38063;53.210;6.504;2023-11-19T09:02:26;41.55;;;4.72;;
52057;SDS011;38063;53.210;6.504;2023-11-19T09:04:51;38.83;;;6.20;;
52057;SDS011;38063;53.210;6.504;2023-11-19T09:07:17;34.15;;;5.32;;
52057;SDS011;38063;53.210;6.504;2023-11-19T09:09:43;34.78;;;5.82;;
52057;SDS011;38063;53.210;6.504;2023-11-19T09:12:08;39.13;;;5.30;;
52057;SDS011;38063;53.210;6.504;2023-11-19T09:14:34;43.92;;;5.32;;
52057;SDS011;38063;53.210;6.504;2023-11-19T09:16:59;36.55;;;5.53;;
52057;SDS011;38063;53.210;6.504;2023-11-19T09:19:25;34.90;;;5.43;;
52057;SDS011;38063;53.210;6.504;2023-11-19T09:21:51;35.53;;;4.55;;
52057;SDS011;38063;53.210;6.504;2023-11-19T09:24:21;38.40;;;5.95;;
52057;SDS011;38063;53.210;6.504;2023-11-19T09:26:46;31.60;;;6.07;;
52057;SDS011;38063;53.210;6.504;2023-11-19T09:29:12;33.78;;;5.20;;
52057;SDS011;38063;53.210;6.504;2023-11-19T09:31:39;43.55;;;6.63;;
52057;SDS011;38063;53.210;6.504;2023-11-19T09:34:05;34.40;;;5.63;;
52057;SDS011;38063;53.210;6.504;2023-11-19T09:36:32;41.40;;;5.70;;
52057;SDS011;38063;53.210;6.504;2023-11-19T09:38:57;38.45;;;6.03;;
52057;SDS011;38063;53.210;6.504;2023-11-19T09:41:25;35.65;;;5.30;;
52057;SDS011;38063;53.210;6.504;2023-11-19T09:43:52;30.33;;;4.60;;
52057;SDS011;38063;53.210;6.504;2023-11-19T09:46:20;47.25;;;6.60;;
52057;SDS011;38063;53.210;6.504;2023-11-19T09:48:49;40.45;;;5.25;;
52057;SDS011;38063;53.210;6.504;2023-11-19T09:51:19;38.65;;;6.00;;
52057;SDS011;38063;53.210;6.504;2023-11-19T09:53:45;30.83;;;5.82;;
52057;SDS011;38063;53.210;6.504;2023-11-19T09:56:11;40.75;;;6.43;;
52057;SDS011;38063;53.210;6.504;2023-11-19T09:58:37;47.33;;;6.68;;
52057;SDS011;38063;53.210;6.504;2023-11-19T10:01:03;39.25;;;6.93;;
52057;SDS011;38063;53.210;6.504;2023-11-19T10:03:33;42.30;;;6.40;;
52057;SDS011;38063;53.210;6.504;2023-11-19T10:06:06;42.72;;;6.40;;
52057;SDS011;38063;53.210;6.504;2023-11-19T10:08:33;36.80;;;7.03;;
52057;SDS011;38063;53.210;6.504;2023-11-19T10:10:59;38.35;;;5.20;;
52057;SDS011;38063;53.210;6.504;2023-11-19T10:13:28;30.08;;;4.55;;
52057;SDS011;38063;53.210;6.504;2023-11-19T10:15:55;35.30;;;5.47;;
52057;SDS011;38063;53.210;6.504;2023-11-19T10:18:25;38.10;;;6.00;;
52057;SDS011;38063;53.210;6.504;2023-11-19T10:20:51;34.45;;;5.03;;
52057;SDS011;38063;53.210;6.504;2023-11-19T10:23:18;33.25;;;5.72;;
52057;SDS011;38063;53.210;6.504;2023-11-19T10:25:44;36.05;;;5.93;;
52057;SDS011;38063;53.210;6.504;2023-11-19T10:28:10;36.05;;;4.85;;
52057;SDS011;38063;53.210;6.504;2023-11-19T10:30:35;39.60;;;5.00;;
52057;SDS011;38063;53.210;6.504;2023-11-19T10:33:05;31.52;;;4.50;;
52057;SDS011;38063;53.210;6.504;2023-11-19T10:35:32;38.92;;;6.32;;
52057;SDS011;38063;53.210;6.504;2023-11-19T10:38:14;39.45;;;5.65;;
52057;SDS011;38063;53.210;6.504;2023-11-19T10:40:40;36.17;;;5.20;;
52057;SDS011;38063;53.210;6.504;2023-11-19T10:43:06;35.47;;;5.93;;
52057;SDS011;38063;53.210;6.504;2023-11-19T10:45:33;32.70;;;4.43;;
52057;SDS011;38063;53.210;6.504;2023-11-19T10:48:03;30.35;;;4.80;;
52057;SDS011;38063;53.210;6.504;2023-11-19T10:50:32;34.05;;;5.30;;
52057;SDS011;38063;53.210;6.504;2023-11-19T10:53:03;47.05;;;6.35;;
52057;SDS011;38063;53.210;6.504;2023-11-19T10:55:30;34.17;;;5.25;;
52057;SDS011;38063;53.210;6.504;2023-11-19T10:58:03;29.55;;;5.50;;
52057;SDS011;38063;53.210;6.504;2023-11-19T11:03:05;35.15;;;4.68;;
52057;SDS011;38063;53.210;6.504;2023-11-19T11:05:36;48.78;;;6.55;;
52057;SDS011;38063;53.210;6.504;2023-11-19T11:08:04;30.10;;;5.50;;
52057;SDS011;38063;53.210;6.504;2023-11-19T11:10:32;28.77;;;4.68;;
52057;SDS011;38063;53.210;6.504;2023-11-19T11:13:02;37.30;;;5.15;;
52057;SDS011;38063;53.210;6.504;2023-11-19T11:15:28;28.20;;;4.35;;
52057;SDS011;38063;53.210;6.504;2023-11-19T11:18:00;27.40;;;4.93;;
52057;SDS011;38063;53.210;6.504;2023-11-19T11:20:33;33.63;;;4.80;;
52057;SDS011;38063;53.210;6.504;2023-11-19T11:28:38;25.95;;;5.25;;
52057;SDS011;38063;53.210;6.504;2023-11-19T11:31:51;29.30;;;4.63;;
52057;SDS011;38063;53.210;6.504;2023-11-19T11:37:17;26.95;;;4.38;;
52057;SDS011;38063;53.210;6.504;2023-11-19T11:39:46;29.95;;;5.13;;
52057;SDS011;38063;53.210;6.504;2023-11-19T11:47:26;32.33;;;4.85;;
52057;SDS011;38063;53.210;6.504;2023-11-19T11:50:12;34.97;;;5.55;;
52057;SDS011;38063;53.210;6.504;2023-11-19T11:55:23;29.45;;;5.13;;
52057;SDS011;38063;53.210;6.504;2023-11-19T11:57:50;30.63;;;5.65;;
52057;SDS011;38063;53.210;6.504;2023-11-19T12:00:22;37.65;;;4.50;;
52057;SDS011;38063;53.210;6.504;2023-11-19T12:03:07;29.17;;;5.28;;
52057;SDS011;38063;53.210;6.504;2023-11-19T12:05:43;29.00;;;4.32;;
52057;SDS011;38063;53.210;6.504;2023-11-19T12:08:10;25.48;;;3.95;;
52057;SDS011;38063;53.210;6.504;2023-11-19T12:10:45;24.90;;;5.32;;
52057;SDS011;38063;53.210;6.504;2023-11-19T12:13:15;31.58;;;5.05;;
52057;SDS011;38063;53.210;6.504;2023-11-19T12:18:26;21.40;;;4.05;;
52057;SDS011;38063;53.210;6.504;2023-11-19T12:20:53;28.20;;;4.95;;
52057;SDS011;38063;53.210;6.504;2023-11-19T12:23:19;30.02;;;5.15;;
52057;SDS011;38063;53.210;6.504;2023-11-19T12:25:45;34.35;;;5.85;;
52057;SDS011;38063;53.210;6.504;2023-11-19T12:28:14;37.33;;;6.10;;
52057;SDS011;38063;53.210;6.504;2023-11-19T12:30:42;27.50;;;5.68;;
52057;SDS011;38063;53.210;6.504;2023-11-19T12:33:09;36.40;;;4.55;;
52057;SDS011;38063;53.210;6.504;2023-11-19T12:35:45;28.70;;;4.15;;
52057;SDS011;38063;53.210;6.504;2023-11-19T12:38:25;28.73;;;4.40;;
52057;SDS011;38063;53.210;6.504;2023-11-19T12:41:04;20.27;;;4.18;;
52057;SDS011;38063;53.210;6.504;2023-11-19T12:43:35;31.63;;;4.88;;
52057;SDS011;38063;53.210;6.504;2023-11-19T12:46:03;23.00;;;3.95;;
52057;SDS011;38063;53.210;6.504;2023-11-19T12:48:50;20.80;;;4.70;;
52057;SDS011;38063;53.210;6.504;2023-11-19T12:51:16;25.02;;;4.22;;
52057;SDS011;38063;53.210;6.504;2023-11-19T12:56:15;32.42;;;5.43;;
52057;SDS011;38063;53.210;6.504;2023-11-19T12:58:41;32.47;;;4.50;;
52057;SDS011;38063;53.210;6.504;2023-11-19T13:01:07;32.13;;;5.25;;
52057;SDS011;38063;53.210;6.504;2023-11-19T13:03:37;34.30;;;5.07;;
52057;SDS011;38063;53.210;6.504;2023-11-19T13:06:09;32.83;;;4.65;;
52057;SDS011;38063;53.210;6.504;2023-11-19T13:08:46;35.40;;;4.85;;
52057;SDS011;38063;53.210;6.504;2023-11-19T13:11:32;33.20;;;5.32;;
52057;SDS011;38063;53.210;6.504;2023-11-19T13:16:30;24.88;;;4.97;;
52057;SDS011;38063;53.210;6.504;2023-11-19T13:18:57;31.25;;;4.30;;
52057;SDS011;38063;53.210;6.504;2023-11-19T13:21:25;25.92;;;4.13;;
52057;SDS011;38063;53.210;6.504;2023-11-19T13:23:50;29.98;;;4.95;;
52057;SDS011;38063;53.210;6.504;2023-11-19T13:26:16;27.58;;;4.55;;
52057;SDS011;38063;53.210;6.504;2023-11-19T13:28:42;26.98;;;3.85;;
52057;SDS011;38063;53.210;6.504;2023-11-19T13:31:07;28.05;;;5.07;;
52057;SDS011;38063;53.210;6.504;2023-11-19T13:33:33;31.38;;;3.80;;
52057;SDS011;38063;53.210;6.504;2023-11-19T13:35:59;28.15;;;4.38;;
52057;SDS011;38063;53.210;6.504;2023-11-19T13:38:30;23.92;;;4.55;;
52057;SDS011;38063;53.210;6.504;2023-11-19T13:40:57;29.10;;;4.55;;
52057;SDS011;38063;53.210;6.504;2023-11-19T13:43:23;35.13;;;4.60;;
52057;SDS011;38063;53.210;6.504;2023-11-19T13:45:49;30.85;;;4.57;;
52057;SDS011;38063;53.210;6.504;2023-11-19T13:48:15;28.08;;;4.72;;
52057;SDS011;38063;53.210;6.504;2023-11-19T13:50:41;27.92;;;4.35;;
52057;SDS011;38063;53.210;6.504;2023-11-19T13:53:07;23.92;;;4.07;;
52057;SDS011;38063;53.210;6.504;2023-11-19T13:55:33;31.80;;;4.35;;
52057;SDS011;38063;53.210;6.504;2023-11-19T13:57:58;41.15;;;4.82;;
52057;SDS011;38063;53.210;6.504;2023-11-19T14:00:24;26.77;;;4.40;;
52057;SDS011;38063;53.210;6.504;2023-11-19T14:02:50;34.75;;;4.53;;
52057;SDS011;38063;53.210;6.504;2023-11-19T14:05:17;28.05;;;4.32;;
52057;SDS011;38063;53.210;6.504;2023-11-19T14:07:43;25.80;;;4.07;;
52057;SDS011;38063;53.210;6.504;2023-11-19T14:10:09;31.92;;;4.18;;
52057;SDS011;38063;53.210;6.504;2023-11-19T14:12:38;24.90;;;4.32;;
52057;SDS011;38063;53.210;6.504;2023-11-19T14:15:04;31.15;;;4.28;;
52057;SDS011;38063;53.210;6.504;2023-11-19T14:17:31;22.65;;;5.03;;
52057;SDS011;38063;53.210;6.504;2023-11-19T14:19:57;31.33;;;5.50;;
52057;SDS011;38063;53.210;6.504;2023-11-19T14:22:23;24.15;;;4.68;;
52057;SDS011;38063;53.210;6.504;2023-11-19T14:24:49;34.05;;;5.00;;
52057;SDS011;38063;53.210;6.504;2023-11-19T14:27:15;26.00;;;4.43;;
52057;SDS011;38063;53.210;6.504;2023-11-19T14:29:42;26.13;;;4.30;;
52057;SDS011;38063;53.210;6.504;2023-11-19T14:32:10;29.25;;;5.10;;
52057;SDS011;38063;53.210;6.504;2023-11-19T14:34:35;31.15;;;4.97;;
52057;SDS011;38063;53.210;6.504;2023-11-19T14:37:01;26.10;;;4.53;;
52057;SDS011;38063;53.210;6.504;2023-11-19T14:39:27;33.92;;;4.25;;
52057;SDS011;38063;53.210;6.504;2023-11-19T14:41:54;38.97;;;5.45;;
52057;SDS011;38063;53.210;6.504;2023-11-19T14:44:23;30.50;;;4.63;;
52057;SDS011;38063;53.210;6.504;2023-11-19T14:46:49;32.55;;;4.40;;
52057;SDS011;38063;53.210;6.504;2023-11-19T14:49:14;30.75;;;4.28;;
52057;SDS011;38063;53.210;6.504;2023-11-19T14:51:40;31.17;;;4.50;;
52057;SDS011;38063;53.210;6.504;2023-11-19T14:54:06;24.90;;;4.93;;
52057;SDS011;38063;53.210;6.504;2023-11-19T14:56:32;23.15;;;3.88;;
52057;SDS011;38063;53.210;6.504;2023-11-19T14:58:58;27.70;;;4.13;;
52057;SDS011;38063;53.210;6.504;2023-11-19T15:01:24;32.33;;;4.30;;
52057;SDS011;38063;53.210;6.504;2023-11-19T15:03:50;25.85;;;4.45;;